Terminal Aerodrome Forecast
Issued by NWS

Home | Current Version | Previous Version | Text Only | Print | Product List | Glossary On
Versions: 1 2 3 4 5 6 7 8 9 10 11 12 13 14 15 16 17 18
000
FTUS45 KTFX 301318 AAA
TAFCTB
TAF AMD
KCTB 301318Z 3013/3112 32015G30KT P6SM SCT015 BKN040
      TEMPO 3013/3017 -SHRA BKN015
     FM301700 31018G26KT P6SM VCSH SCT040 BKN070
     FM310200 33011KT P6SM BKN100=

USA.gov is the U.S. government's official web portal to all federal, state and local government web resources and services.